United States > Florida

Lantana, FL

4:17 PM EDT on July 07, 2015 (GMT -0400)
Lantana | | Change Station
CLOSE
Current Station
Personal Weather Station
Location: Lantana, FL
Elevation: 16 ft
Nearby Weather Stations

Elev 16 ft 26.58 °N, 80.06 °W | Updated 2 minutes ago

Mostly Cloudy
Mostly Cloudy
84.9 °F
Feels Like 92 °F
N
7.0
Wind Variable Wind from ESE
Gusts 11.0 mph

Today
High -- | Low -- °F
--% Chance of Precip.
Yesterday
High -- | Low -- °F
Precip. -- in
6:32 AM 8:17 PM
Waning Gibbous, 61% visible
Pressure 30.14 in
Visibility 10.0 miles
Clouds Scattered Clouds 2800 ft
Mostly Cloudy 5500 ft
Mostly Cloudy 19000 ft
Heat Index 92 °F
Dew Point 74 °F
Humidity 70%
Rainfall 0.03 in
Snow Depth Not available.
UV 6 out of 12
Pollen 4.20 out of 12
Air Quality Not available.
Flu Activity Not available.
METAR KPBI 071953Z 12014KT 10SM SCT028 BKN055 BKN190 30/23 A3014 RMK AO2 SLP207 CB DSNT NE-E SE T03000228

More Conditions Fewer Conditions

Pressure 30.14 in
Visibility 10.0 miles
Clouds Scattered Clouds 2800 ft
Mostly Cloudy 5500 ft
Mostly Cloudy 19000 ft
Heat Index 92 °F
Dew Point 74 °F
Humidity 70%
Rainfall 0.03 in
Snow Depth Not available.
UV 6 out of 12
Pollen 4.20 out of 12
Air Quality Not available.
Flu Activity Not available.
METAR KPBI 071953Z 12014KT 10SM SCT028 BKN055 BKN190 30/23 A3014 RMK AO2 SLP207 CB DSNT NE-E SE T03000228

More Conditions Fewer Conditions

10-Day Weather Forecast

×

Almanac

Astronomy

Jul. 07, 2015 Rise Set
Actual Time
Civil Twilight
Nautical Twilight
Astronomical Twilight
Moon
Length of Visible Light
Length of Day
Tomorrow will be .
, % of the Moon is Illuminated

Today's Extremes

State Highs State Lows

Community

WunderPhotos

Upload Photos

1,835,884 photos uploaded!

WunderBlogs® & News

Nearby

Air Quality

  Air Quality AQ Index Pollutant
Not available.

Snow Depth

Station Depth Elevation

Earthquake Activity

City Distance Mag. Time & Date
Minimum magnitude displayed is 2.5.

Coastal Water Temperatures

Place Temperature

Stations

Nearby Weather Stations

Station Location Temp. Windchill Dew Point Humidity Wind Precip. Elev Updated Type